Time;durP1;ratioP1;P1;durP2;ratioP2;P2;SDS_P1;SDS_P2;PMS_P1;PMS_P2;Temp;Humidity;BMP_temperature;BMP_pressure;BME280_temperature;BME280_humidity;BME280_pressure;Samples;Min_cycle;Max_cycle;Signal;HPM_P1;HPM_P2
2020/12/22 00:01:01;;;;;;;20.67;12.38;;;12.30;99.90;;;;;;4177657;28;20431;-74
2020/12/22 00:03:02;;;;;;;22.80;15.50;;;12.30;99.90;;;;;;4177608;28;20025;-72
2020/12/22 00:05:02;;;;;;;20.90;14.63;;;12.30;99.90;;;;;;4159936;28;20040;-73
2020/12/22 00:07:03;;;;;;;22.02;17.45;;;12.40;99.90;;;;;;4177461;28;20150;-73
2020/12/22 00:09:03;;;;;;;18.95;15.63;;;12.40;99.90;;;;;;4177782;28;20365;-73
2020/12/22 00:11:04;;;;;;;21.33;16.90;;;12.40;99.90;;;;;;4160027;28;20029;-73
2020/12/22 00:13:05;;;;;;;21.10;16.42;;;12.40;99.90;;;;;;4160328;28;20029;-73
2020/12/22 00:15:07;;;;;;;20.40;15.70;;;12.50;99.90;;;;;;4179187;28;20064;-73
2020/12/22 00:17:08;;;;;;;17.10;13.60;;;12.50;99.90;;;;;;4161246;28;20030;-73
2020/12/22 00:19:09;;;;;;;16.63;14.63;;;12.50;99.90;;;;;;4179526;28;20044;-74
2020/12/22 00:21:10;;;;;;;20.15;14.65;;;12.50;99.90;;;;;;4179200;28;20033;-74
2020/12/22 00:23:10;;;;;;;18.55;12.73;;;12.50;99.90;;;;;;4179420;28;20549;-75
2020/12/22 00:25:11;;;;;;;17.08;13.02;;;12.50;99.90;;;;;;4179191;28;20029;-73
2020/12/22 00:27:11;;;;;;;14.95;11.90;;;12.60;99.90;;;;;;4178995;28;20025;-75
2020/12/22 00:29:12;;;;;;;15.32;12.38;;;12.60;99.90;;;;;;4179279;28;20033;-73
2020/12/22 00:31:13;;;;;;;15.77;12.02;;;12.60;99.90;;;;;;4179317;28;20033;-74
2020/12/22 00:33:13;;;;;;;12.73;10.68;;;12.60;99.90;;;;;;4161465;28;20408;-74
2020/12/22 00:35:14;;;;;;;11.63;9.18;;;12.70;99.90;;;;;;4161546;28;20033;-73
2020/12/22 00:37:15;;;;;;;12.77;10.27;;;12.70;99.90;;;;;;4178951;28;20379;-73
2020/12/22 00:39:15;;;;;;;11.52;10.32;;;12.70;99.90;;;;;;4179144;28;20472;-74
2020/12/22 00:41:16;;;;;;;10.57;8.73;;;12.70;99.90;;;;;;4178997;28;20078;-74
2020/12/22 00:43:16;;;;;;;9.23;8.23;;;12.70;99.90;;;;;;4179132;28;20030;-74
2020/12/22 00:45:19;;;;;;;9.55;8.55;;;12.80;99.90;;;;;;4179198;28;20082;-73
2020/12/22 00:47:20;;;;;;;10.67;9.13;;;12.80;99.90;;;;;;4178580;28;20122;-74
2020/12/22 00:49:21;;;;;;;9.75;7.25;;;12.80;99.90;;;;;;4178922;28;20481;-74
2020/12/22 00:51:23;;;;;;;10.32;9.27;;;12.80;99.90;;;;;;4179148;28;20083;-74
2020/12/22 00:53:23;;;;;;;9.40;8.43;;;12.80;99.90;;;;;;4161526;28;20115;-74
2020/12/22 00:55:24;;;;;;;9.32;7.65;;;12.80;99.90;;;;;;4161131;28;20380;-73
2020/12/22 00:57:24;;;;;;;10.00;9.00;;;12.80;99.90;;;;;;4168509;28;20174;-74
2020/12/22 00:59:25;;;;;;;10.38;9.25;;;12.80;99.90;;;;;;4178640;28;20017;-73
2020/12/22 01:01:30;;;;;;;9.45;7.55;;;12.80;99.90;;;;;;4164834;28;20026;-73
2020/12/22 01:03:30;;;;;;;9.50;7.95;;;12.80;99.90;;;;;;4148212;28;20476;-73
2020/12/22 01:05:31;;;;;;;9.93;7.50;;;12.80;99.90;;;;;;4178555;28;20028;-74
2020/12/22 01:07:32;;;;;;;9.15;7.65;;;12.80;99.90;;;;;;4161345;28;20022;-74
2020/12/22 01:09:32;;;;;;;8.95;6.15;;;12.80;99.90;;;;;;4178768;28;20143;-74
2020/12/22 01:11:38;;;;;;;7.60;6.68;;;12.80;99.90;;;;;;4180182;28;20043;-74
2020/12/22 01:13:38;;;;;;;7.88;6.75;;;12.80;99.90;;;;;;4163584;28;20037;-74
2020/12/22 01:15:39;;;;;;;6.85;5.97;;;12.80;99.90;;;;;;4174319;28;20472;-72
2020/12/22 01:17:39;;;;;;;7.95;5.80;;;12.90;99.90;;;;;;4178131;28;20033;-75
2020/12/22 01:19:40;;;;;;;6.82;5.18;;;12.90;99.90;;;;;;4162345;28;20432;-72
2020/12/22 01:21:41;;;;;;;6.97;5.50;;;12.80;99.90;;;;;;4179876;28;20498;-74
2020/12/22 01:23:41;;;;;;;6.90;4.57;;;12.80;99.90;;;;;;4178683;28;22573;-72
2020/12/22 01:25:42;;;;;;;5.28;4.78;;;12.80;99.90;;;;;;4180393;28;20082;-73
2020/12/22 01:27:42;;;;;;;5.22;4.00;;;12.80;99.90;;;;;;4180219;28;20476;-73
2020/12/22 01:29:43;;;;;;;5.28;4.65;;;12.80;99.90;;;;;;4162601;28;20025;-73
2020/12/22 01:31:45;;;;;;;5.32;4.30;;;12.80;99.90;;;;;;4180576;28;20033;-74
2020/12/22 01:33:46;;;;;;;4.53;4.00;;;12.80;99.90;;;;;;4181225;28;20021;-73
2020/12/22 01:35:47;;;;;;;5.28;4.22;;;12.80;99.90;;;;;;4162318;28;20156;-72
2020/12/22 01:37:47;;;;;;;4.70;3.33;;;12.80;99.90;;;;;;4162479;28;20025;-72
2020/12/22 01:39:48;;;;;;;4.85;3.83;;;12.80;99.90;;;;;;4179749;28;20480;-72
2020/12/22 01:41:48;;;;;;;5.10;4.35;;;12.80;99.90;;;;;;4179828;28;20433;-73
2020/12/22 01:44:10;;;;;;;4.55;3.75;;;12.80;99.90;;;;;;4161752;28;20037;-73
2020/12/22 01:46:10;;;;;;;5.13;4.07;;;12.80;99.90;;;;;;4161285;28;20151;-73
2020/12/22 01:48:11;;;;;;;4.88;3.90;;;12.80;99.90;;;;;;4161651;28;20042;-73
2020/12/22 01:50:17;;;;;;;5.18;3.67;;;12.80;99.90;;;;;;4180380;28;20033;-72
2020/12/22 01:52:17;;;;;;;4.07;3.60;;;12.80;99.90;;;;;;4181260;28;20116;-73
2020/12/22 01:54:18;;;;;;;4.25;3.65;;;12.80;99.90;;;;;;4181162;28;20033;-72
2020/12/22 01:56:19;;;;;;;4.00;3.60;;;12.80;99.90;;;;;;4181191;28;20027;-73
2020/12/22 01:58:20;;;;;;;5.40;4.03;;;12.80;99.90;;;;;;4163308;28;20117;-72
2020/12/22 02:00:20;;;;;;;4.22;3.67;;;12.80;99.90;;;;;;4163436;28;20488;-73
2020/12/22 02:02:22;;;;;;;7.22;3.75;;;12.80;99.90;;;;;;4163424;28;20073;-73
2020/12/22 02:04:23;;;;;;;4.40;3.22;;;12.80;99.90;;;;;;4163231;28;20488;-73
2020/12/22 02:06:24;;;;;;;4.32;3.92;;;12.80;99.90;;;;;;4181080;28;20040;-73
2020/12/22 02:08:25;;;;;;;3.90;3.50;;;12.90;99.90;;;;;;4181283;28;20365;-73
2020/12/22 02:10:26;;;;;;;4.72;3.70;;;12.80;99.90;;;;;;4181052;28;20036;-73
2020/12/22 02:12:26;;;;;;;3.45;3.17;;;12.80;99.90;;;;;;4181297;28;20037;-73
2020/12/22 02:14:27;;;;;;;3.05;2.75;;;12.90;99.90;;;;;;4180744;28;20546;-73
2020/12/22 02:16:27;;;;;;;3.25;2.90;;;12.90;99.90;;;;;;4180694;28;20048;-74
2020/12/22 02:18:28;;;;;;;2.88;2.63;;;12.80;99.90;;;;;;4181245;28;20021;-73
2020/12/22 02:20:28;;;;;;;3.60;2.42;;;12.80;99.90;;;;;;4180904;28;20044;-73
2020/12/22 02:22:29;;;;;;;1.02;1.02;;;12.80;99.90;;;;;;4180642;28;20040;-72
2020/12/22 02:24:34;;;;;;;1.00;1.00;;;12.80;99.90;;;;;;4180964;28;20087;-72
2020/12/22 02:26:34;;;;;;;1.00;1.00;;;12.80;99.90;;;;;;4180639;28;20100;-72
2020/12/22 02:28:35;;;;;;;1.27;1.27;;;12.80;99.90;;;;;;4180640;28;20059;-72
2020/12/22 02:30:36;;;;;;;1.00;1.00;;;12.80;99.90;;;;;;4180938;28;20446;-73
2020/12/22 02:32:37;;;;;;;1.00;1.00;;;12.80;99.90;;;;;;4162727;28;20033;-73
2020/12/22 02:34:38;;;;;;;1.00;1.00;;;12.80;99.90;;;;;;4180424;28;20064;-72
2020/12/22 02:36:39;;;;;;;1.20;1.20;;;12.80;99.90;;;;;;4180678;28;20508;-73
2020/12/22 02:38:41;;;;;;;0.90;0.90;;;12.80;99.90;;;;;;4174809;28;20557;-72
2020/12/22 02:40:42;;;;;;;1.10;1.10;;;12.80;99.90;;;;;;4180585;28;20480;-72
2020/12/22 02:42:42;;;;;;;1.52;1.52;;;12.80;99.90;;;;;;4162603;28;20119;-72
2020/12/22 02:44:43;;;;;;;0.90;0.90;;;12.80;99.90;;;;;;4162592;28;20106;-71
2020/12/22 02:46:44;;;;;;;1.00;1.00;;;12.80;99.90;;;;;;4162350;28;20045;-71
2020/12/22 02:48:45;;;;;;;1.10;1.10;;;12.80;99.90;;;;;;4162228;28;20091;-72
2020/12/22 02:50:45;;;;;;;1.00;1.00;;;12.90;99.90;;;;;;4162522;28;20030;-72
2020/12/22 02:52:46;;;;;;;1.00;1.00;;;12.80;99.90;;;;;;4180074;28;20116;-72
2020/12/22 02:54:46;;;;;;;1.10;1.10;;;12.80;99.90;;;;;;4162851;28;20029;-72
2020/12/22 02:56:47;;;;;;;1.10;1.10;;;12.80;99.90;;;;;;4180003;28;20074;-72
2020/12/22 02:58:50;;;;;;;1.10;1.10;;;12.90;99.90;;;;;;4161416;28;20396;-72
2020/12/22 03:00:51;;;;;;;0.98;0.98;;;12.80;99.90;;;;;;4178887;28;20032;-71
2020/12/22 03:02:51;;;;;;;1.10;1.10;;;12.80;99.90;;;;;;4162589;28;20037;-72
2020/12/22 03:04:52;;;;;;;1.00;1.00;;;12.80;99.90;;;;;;4178784;28;20682;-72
2020/12/22 03:06:52;;;;;;;1.00;1.00;;;12.80;99.90;;;;;;4178682;28;20419;-72
2020/12/22 03:08:53;;;;;;;1.05;1.05;;;12.80;99.90;;;;;;4178271;28;20083;-71
2020/12/22 03:10:53;;;;;;;1.10;1.10;;;12.80;99.90;;;;;;4178353;28;20032;-72
2020/12/22 03:12:54;;;;;;;1.20;1.20;;;12.80;99.90;;;;;;4180126;28;20384;-72
2020/12/22 03:14:55;;;;;;;1.00;1.00;;;12.80;99.90;;;;;;4162151;28;20653;-72
2020/12/22 03:16:55;;;;;;;1.08;1.08;;;12.80;99.90;;;;;;4178107;28;20458;-72
2020/12/22 03:18:56;;;;;;;1.00;1.00;;;12.80;99.90;;;;;;4178687;28;20031;-73
2020/12/22 03:20:57;;;;;;;1.10;1.10;;;12.80;99.90;;;;;;4178318;28;20040;-72
2020/12/22 03:22:57;;;;;;;1.08;1.08;;;12.70;99.90;;;;;;4178296;28;20021;-71
2020/12/22 03:24:58;;;;;;;1.10;1.10;;;12.70;99.90;;;;;;4178567;28;20037;-72
2020/12/22 03:26:58;;;;;;;1.20;1.20;;;12.70;99.90;;;;;;4161671;28;20033;-72
2020/12/22 03:28:59;;;;;;;1.50;1.45;;;12.70;99.90;;;;;;4179312;28;20103;-72
2020/12/22 03:30:59;;;;;;;1.60;1.50;;;12.70;99.90;;;;;;4179674;28;20025;-72
2020/12/22 03:33:00;;;;;;;1.10;1.10;;;12.60;99.90;;;;;;4161860;28;20034;-72
2020/12/22 03:35:01;;;;;;;1.92;1.83;;;12.60;99.90;;;;;;4178985;28;20028;-72
2020/12/22 03:37:02;;;;;;;1.20;1.20;;;12.60;99.90;;;;;;4162984;28;20168;-73
2020/12/22 03:39:02;;;;;;;1.30;1.30;;;12.60;99.90;;;;;;4171992;28;20026;-72
2020/12/22 03:41:03;;;;;;;1.20;1.20;;;12.70;99.90;;;;;;4178064;28;20035;-73
2020/12/22 03:43:03;;;;;;;1.00;1.00;;;12.70;99.90;;;;;;4160173;28;20033;-73
2020/12/22 03:45:08;;;;;;;1.02;1.02;;;12.70;99.90;;;;;;4177731;28;20132;-72
2020/12/22 03:47:09;;;;;;;1.02;1.02;;;12.80;99.90;;;;;;4177754;28;20041;-72
2020/12/22 03:49:10;;;;;;;1.15;1.15;;;12.80;99.90;;;;;;4177971;28;20033;-73
2020/12/22 03:51:11;;;;;;;1.20;1.20;;;12.80;99.90;;;;;;4177726;28;20029;-72
2020/12/22 03:53:11;;;;;;;1.30;1.30;;;12.70;99.90;;;;;;4178489;28;20485;-73
2020/12/22 03:55:12;;;;;;;1.00;1.00;;;12.70;99.90;;;;;;4179174;28;20021;-73
2020/12/22 03:57:14;;;;;;;1.00;1.00;;;12.70;99.90;;;;;;4179476;28;20033;-73
2020/12/22 03:59:14;;;;;;;1.10;1.10;;;12.70;99.90;;;;;;4179436;28;20120;-73
2020/12/22 04:01:15;;;;;;;1.08;1.08;;;12.80;99.90;;;;;;4179513;28;20567;-73
2020/12/22 04:03:16;;;;;;;1.00;1.00;;;12.80;99.90;;;;;;4179537;28;20116;-73
2020/12/22 04:05:16;;;;;;;1.10;1.10;;;12.70;99.90;;;;;;4161666;28;20071;-73
2020/12/22 04:07:17;;;;;;;1.00;1.00;;;12.60;99.90;;;;;;4161279;28;20029;-73
2020/12/22 04:09:21;;;;;;;1.30;1.30;;;12.60;99.90;;;;;;4179576;28;20033;-72
2020/12/22 04:11:22;;;;;;;1.10;1.10;;;12.60;99.90;;;;;;4161656;28;20034;-72
2020/12/22 04:13:22;;;;;;;1.10;1.10;;;12.50;99.90;;;;;;4179131;28;20071;-73
2020/12/22 04:15:23;;;;;;;1.02;1.02;;;12.60;99.90;;;;;;4179560;28;20044;-72
2020/12/22 04:17:24;;;;;;;1.08;1.08;;;12.60;99.90;;;;;;4179179;28;20032;-72
2020/12/22 04:19:24;;;;;;;1.52;1.52;;;12.60;99.90;;;;;;4179239;28;20029;-72
2020/12/22 04:21:25;;;;;;;1.10;1.10;;;12.50;99.90;;;;;;4179359;28;20025;-72
2020/12/22 04:23:26;;;;;;;1.10;1.10;;;12.50;99.90;;;;;;4179330;28;20662;-72
2020/12/22 04:25:27;;;;;;;1.58;1.48;;;12.50;99.90;;;;;;4161546;28;20032;-72
2020/12/22 04:27:28;;;;;;;0.98;0.98;;;12.50;99.90;;;;;;4179171;28;20446;-72
2020/12/22 04:29:28;;;;;;;1.25;1.25;;;12.50;99.90;;;;;;4179090;28;20082;-72
2020/12/22 04:31:29;;;;;;;1.10;1.10;;;12.50;99.90;;;;;;4179387;28;20444;-72
2020/12/22 04:33:30;;;;;;;1.25;1.25;;;12.50;99.90;;;;;;4179084;28;20021;-72
2020/12/22 04:35:30;;;;;;;1.08;1.08;;;12.50;99.90;;;;;;4161420;28;20112;-73
2020/12/22 04:37:31;;;;;;;1.20;1.20;;;12.50;99.90;;;;;;4179302;28;20475;-72
2020/12/22 04:39:31;;;;;;;1.58;1.55;;;12.40;99.90;;;;;;4168221;28;20037;-72
2020/12/22 04:41:35;;;;;;;1.13;1.13;;;12.40;99.90;;;;;;4161441;28;20053;-72
2020/12/22 04:43:38;;;;;;;1.10;1.10;;;12.40;99.90;;;;;;4179170;28;20029;-72
2020/12/22 04:45:39;;;;;;;1.00;1.00;;;12.50;99.90;;;;;;4179246;28;20109;-72
2020/12/22 04:47:41;;;;;;;5.40;2.05;;;12.50;99.90;;;;;;4181805;28;20041;-72
2020/12/22 04:49:46;;;;;;;1.10;1.10;;;12.50;99.90;;;;;;4182255;28;20044;-73
2020/12/22 04:51:49;;;;;;;1.30;1.30;;;12.60;99.90;;;;;;4164387;28;20268;-73
2020/12/22 04:53:50;;;;;;;1.38;1.38;;;12.60;99.90;;;;;;4181186;28;20091;-72
2020/12/22 04:55:51;;;;;;;1.10;1.10;;;12.50;99.90;;;;;;4181885;28;20021;-73
2020/12/22 04:57:54;;;;;;;1.00;1.00;;;12.50;99.90;;;;;;4180612;28;20060;-73
2020/12/22 04:59:54;;;;;;;1.10;1.10;;;12.50;99.90;;;;;;4181090;28;20025;-72
2020/12/22 05:01:57;;;;;;;2.30;1.90;;;12.50;99.90;;;;;;4164374;28;20060;-73
2020/12/22 05:03:57;;;;;;;7.20;1.73;;;12.50;99.90;;;;;;4180693;28;20380;-72
2020/12/22 05:05:58;;;;;;;1.00;1.00;;;12.50;99.90;;;;;;4180644;28;20391;-73
2020/12/22 05:07:58;;;;;;;1.25;1.25;;;12.50;99.90;;;;;;4180334;28;20029;-73
2020/12/22 05:10:08;;;;;;;1.10;1.10;;;12.50;99.90;;;;;;4180276;28;20021;-72
2020/12/22 05:12:09;;;;;;;1.05;1.05;;;12.50;99.90;;;;;;4181652;28;20032;-72
2020/12/22 05:14:10;;;;;;;1.30;1.30;;;12.50;99.90;;;;;;4163908;28;20033;-72
2020/12/22 05:16:10;;;;;;;1.20;1.20;;;12.50;99.90;;;;;;4179191;28;20387;-72
2020/12/22 05:18:11;;;;;;;1.30;1.30;;;12.50;99.90;;;;;;4176507;28;20416;-73
2020/12/22 05:20:14;;;;;;;1.10;1.10;;;12.50;99.90;;;;;;4162254;28;20480;-73
2020/12/22 05:22:15;;;;;;;1.00;1.00;;;12.50;99.90;;;;;;4180101;28;20380;-73
2020/12/22 05:24:16;;;;;;;1.20;1.20;;;12.50;99.90;;;;;;4180094;28;20029;-73
2020/12/22 05:26:23;;;;;;;1.55;1.55;;;12.50;99.90;;;;;;4179693;28;20444;-73
2020/12/22 05:28:26;;;;;;;1.10;1.10;;;12.40;99.90;;;;;;4157197;28;20076;-73
2020/12/22 05:30:27;;;;;;;1.65;1.55;;;12.40;99.90;;;;;;4169844;28;20054;-73
2020/12/22 05:32:28;;;;;;;1.10;1.10;;;12.40;99.90;;;;;;4170450;28;20038;-72
2020/12/22 05:34:29;;;;;;;1.10;1.10;;;12.40;99.90;;;;;;4149750;28;20397;-72
2020/12/22 05:36:30;;;;;;;1.23;1.23;;;12.40;99.90;;;;;;4167057;28;20053;-73
2020/12/22 05:38:34;;;;;;;1.60;1.40;;;12.40;99.90;;;;;;4169897;28;20115;-72
2020/12/22 05:40:34;;;;;;;1.20;1.20;;;12.50;99.90;;;;;;4178449;28;20040;-72
2020/12/22 05:42:36;;;;;;;1.10;1.10;;;12.50;99.90;;;;;;4166485;28;20400;-73
2020/12/22 05:44:44;;;;;;;2.33;2.17;;;12.60;99.90;;;;;;4147087;28;20593;-73
2020/12/22 05:46:45;;;;;;;1.10;1.10;;;12.60;99.90;;;;;;4164434;28;20045;-73
2020/12/22 05:48:45;;;;;;;1.10;1.10;;;12.70;99.90;;;;;;4167118;28;20456;-73
2020/12/22 05:50:51;;;;;;;1.08;1.08;;;12.70;99.90;;;;;;4153746;28;20392;-73
2020/12/22 05:52:53;;;;;;;1.20;1.20;;;12.70;99.90;;;;;;4165296;28;20026;-73
2020/12/22 05:54:56;;;;;;;1.10;1.10;;;12.70;99.90;;;;;;4174120;28;20102;-73
2020/12/22 05:57:06;;;;;;;1.10;1.10;;;12.60;99.90;;;;;;4150705;28;20041;-73
2020/12/22 05:59:36;;;;;;;1.60;1.60;;;12.60;99.90;;;;;;4164660;28;20404;-73
2020/12/22 06:01:36;;;;;;;2.55;1.25;;;12.60;99.90;;;;;;4157960;28;20112;-73
2020/12/22 06:03:38;;;;;;;1.10;1.10;;;12.50;99.90;;;;;;4167043;28;20029;-73
2020/12/22 06:05:43;;;;;;;1.27;1.25;;;12.50;99.90;;;;;;4178548;28;20033;-73
2020/12/22 06:07:45;;;;;;;1.10;1.10;;;12.60;99.90;;;;;;4157962;28;20069;-73
2020/12/22 06:09:46;;;;;;;1.30;1.27;;;12.60;99.90;;;;;;4175100;28;20113;-73
2020/12/22 06:11:49;;;;;;;1.10;1.10;;;12.60;99.90;;;;;;4172692;28;20032;-73
2020/12/22 06:13:52;;;;;;;1.20;1.20;;;12.60;99.90;;;;;;4170804;28;20388;-72
2020/12/22 06:15:53;;;;;;;1.67;1.67;;;12.60;99.90;;;;;;4167035;28;20167;-73
2020/12/22 06:17:54;;;;;;;2.15;2.05;;;12.60;99.90;;;;;;4148602;28;20046;-73
2020/12/22 06:19:55;;;;;;;1.17;1.17;;;12.60;99.90;;;;;;4166387;28;20122;-73
2020/12/22 06:21:58;;;;;;;1.20;1.20;;;12.70;99.90;;;;;;4172460;28;20441;-73
2020/12/22 06:23:58;;;;;;;1.20;1.20;;;12.70;99.90;;;;;;4149068;28;20432;-73
2020/12/22 06:26:05;;;;;;;1.30;1.25;;;12.70;99.90;;;;;;4163935;28;20044;-73
2020/12/22 06:28:34;;;;;;;1.60;1.52;;;12.70;99.90;;;;;;4153579;28;20502;-73
2020/12/22 06:30:38;;;;;;;1.20;1.20;;;12.60;99.90;;;;;;4178258;28;20452;-73
2020/12/22 06:32:38;;;;;;;;;;;12.60;99.90;;;;;;4179351;28;20025;-73
2020/12/22 06:34:39;;;;;;;1.95;1.85;;;12.60;99.90;;;;;;4179116;28;20309;-73
2020/12/22 06:36:56;;;;;;;1.30;1.30;;;12.70;99.90;;;;;;4180310;28;20025;-73
2020/12/22 06:39:02;;;;;;;1.20;1.20;;;12.60;99.90;;;;;;4180842;28;20025;-73
2020/12/22 06:41:03;;;;;;;2.50;1.55;;;12.60;99.90;;;;;;4180049;28;20028;-73
2020/12/22 06:43:03;;;;;;;2.20;2.10;;;12.60;99.90;;;;;;4180624;28;20651;-73
2020/12/22 06:45:35;;;;;;;1.20;1.20;;;12.60;99.90;;;;;;4180303;28;20028;-72
2020/12/22 06:47:35;;;;;;;1.10;1.10;;;12.60;99.90;;;;;;4166687;28;20040;-72
2020/12/22 06:49:50;;;;;;;1.20;1.20;;;12.50;99.90;;;;;;4161362;28;20096;-73
2020/12/22 06:51:50;;;;;;;1.27;1.27;;;12.50;99.90;;;;;;4179139;28;20100;-73
2020/12/22 06:53:51;;;;;;;1.60;1.60;;;12.60;99.90;;;;;;4180015;28;20506;-73
2020/12/22 06:55:51;;;;;;;1.20;1.20;;;12.60;99.90;;;;;;4180247;28;20013;-73
2020/12/22 06:57:52;;;;;;;1.23;1.23;;;12.60;99.90;;;;;;4173975;28;20030;-73
2020/12/22 06:59:52;;;;;;;2.10;1.90;;;12.60;99.90;;;;;;4173944;28;20029;-73
2020/12/22 07:01:53;;;;;;;11.35;1.92;;;12.60;99.90;;;;;;4180075;28;20057;-73
2020/12/22 07:04:17;;;;;;;1.13;1.13;;;12.60;99.90;;;;;;4179900;28;20114;-72
2020/12/22 07:06:36;;;;;;;;;;;12.60;99.90;;;;;;4179298;28;20029;-72
2020/12/22 07:08:37;;;;;;;1.25;1.25;;;12.50;99.90;;;;;;4157697;28;20016;-73
2020/12/22 07:10:45;;;;;;;1.10;1.10;;;12.50;99.90;;;;;;4175396;28;20091;-73
2020/12/22 07:12:48;;;;;;;1.33;1.33;;;12.50;99.90;;;;;;4177128;28;20025;-73
2020/12/22 07:14:50;;;;;;;1.10;1.10;;;12.40;99.90;;;;;;4179307;28;20105;-72
2020/12/22 07:17:00;;;;;;;1.10;1.10;;;12.40;99.90;;;;;;4178360;28;20025;-72
2020/12/22 07:19:03;;;;;;;1.10;1.10;;;12.40;99.90;;;;;;4177457;28;20032;-73
2020/12/22 07:21:04;;;;;;;1.30;1.30;;;12.40;99.90;;;;;;4177805;28;20499;-72
2020/12/22 07:23:06;;;;;;;1.25;1.25;;;12.40;99.90;;;;;;4166264;28;20036;-72
2020/12/22 07:25:06;;;;;;;1.23;1.23;;;12.40;99.90;;;;;;4159473;28;20120;-72
2020/12/22 07:27:08;;;;;;;1.20;1.20;;;12.40;99.90;;;;;;4179303;28;20025;-72
2020/12/22 07:29:09;;;;;;;1.30;1.30;;;12.40;99.90;;;;;;4178473;28;20029;-72
2020/12/22 07:31:10;;;;;;;1.73;1.67;;;12.40;99.90;;;;;;4154847;28;20061;-72
2020/12/22 07:33:10;;;;;;;1.10;1.10;;;12.40;99.90;;;;;;4178272;28;20024;-72
2020/12/22 07:35:12;;;;;;;1.30;1.30;;;12.30;99.90;;;;;;4159566;28;20449;-72
2020/12/22 07:37:14;;;;;;;2.13;2.03;;;12.30;99.90;;;;;;4177243;28;20606;-72
2020/12/22 07:39:20;;;;;;;3.90;1.85;;;12.30;99.90;;;;;;4178188;28;20040;-72
2020/12/22 07:41:26;;;;;;;1.10;1.10;;;12.30;99.90;;;;;;4172060;28;20021;-72
2020/12/22 07:43:27;;;;;;;1.10;1.10;;;12.20;99.90;;;;;;4178181;28;20055;-72
2020/12/22 07:45:28;;;;;;;1.10;1.10;;;12.20;99.90;;;;;;4161650;28;20045;-72
2020/12/22 07:47:28;;;;;;;1.48;1.35;;;12.10;99.90;;;;;;4161028;28;20522;-73
2020/12/22 07:49:29;;;;;;;1.50;1.50;;;12.10;99.90;;;;;;4177702;28;20487;-72
2020/12/22 07:51:30;;;;;;;1.30;1.30;;;12.20;99.90;;;;;;4160769;28;20029;-72
2020/12/22 07:53:30;;;;;;;1.15;1.15;;;12.10;99.90;;;;;;4178254;28;20049;-72
2020/12/22 07:55:40;;;;;;;1.73;1.63;;;12.10;99.90;;;;;;4161607;28;20030;-72
2020/12/22 07:57:41;;;;;;;1.20;1.20;;;12.10;99.90;;;;;;4161625;28;20206;-72
2020/12/22 07:59:43;;;;;;;1.10;1.10;;;12.10;99.90;;;;;;4178371;28;20017;-73
2020/12/22 08:01:48;;;;;;;2.28;2.17;;;12.10;99.90;;;;;;4175464;28;20052;-71
2020/12/22 08:03:49;;;;;;;1.30;1.30;;;12.10;99.90;;;;;;4160309;28;20025;-72
2020/12/22 08:06:03;;;;;;;2.42;2.22;;;12.10;99.90;;;;;;4159251;28;20476;-72
2020/12/22 08:08:04;;;;;;;2.10;2.00;;;12.10;99.90;;;;;;4176881;28;20133;-73
2020/12/22 08:10:15;;;;;;;1.42;1.42;;;12.10;99.90;;;;;;4178626;28;20380;-71
2020/12/22 08:12:16;;;;;;;1.38;1.38;;;12.10;99.90;;;;;;4178621;28;20028;-72
2020/12/22 08:14:17;;;;;;;2.05;1.95;;;12.10;99.90;;;;;;4177424;28;20037;-72
2020/12/22 08:16:19;;;;;;;1.15;1.15;;;12.10;99.90;;;;;;4144905;28;20676;-72
2020/12/22 08:18:20;;;;;;;1.30;1.30;;;12.20;99.90;;;;;;4152989;28;20034;-72
2020/12/22 08:20:23;;;;;;;1.98;1.88;;;12.20;99.90;;;;;;4168074;28;20043;-72
2020/12/22 08:22:23;;;;;;;1.25;1.25;;;12.20;99.90;;;;;;4179702;28;20479;-71
2020/12/22 08:24:25;;;;;;;1.30;1.30;;;12.30;99.90;;;;;;4178667;28;20167;-71
2020/12/22 08:26:26;;;;;;;2.13;2.03;;;12.30;99.90;;;;;;4178186;28;20396;-71
2020/12/22 08:28:27;;;;;;;2.20;2.10;;;12.30;99.90;;;;;;4167824;28;20048;-72
2020/12/22 08:30:29;;;;;;;2.42;2.33;;;12.40;99.90;;;;;;4173323;28;20028;-71
2020/12/22 08:32:29;;;;;;;1.63;1.52;;;12.40;99.90;;;;;;4176042;28;20456;-71
2020/12/22 08:34:31;;;;;;;1.50;1.50;;;12.40;99.90;;;;;;4169915;28;20037;-73
2020/12/22 08:36:31;;;;;;;1.30;1.30;;;12.40;99.90;;;;;;4158839;28;20044;-72
2020/12/22 08:38:32;;;;;;;1.30;1.30;;;12.40;99.90;;;;;;4179843;28;20028;-71
2020/12/22 08:40:33;;;;;;;2.80;1.45;;;12.40;99.90;;;;;;4172399;28;20033;-73
2020/12/22 08:42:34;;;;;;;1.77;1.67;;;12.40;99.90;;;;;;4181294;28;20033;-73
2020/12/22 08:44:35;;;;;;;2.35;2.15;;;12.40;99.90;;;;;;4181157;28;20029;-72
2020/12/22 08:46:37;;;;;;;1.30;1.30;;;12.40;99.90;;;;;;4162827;28;20037;-72
2020/12/22 08:48:38;;;;;;;2.83;2.55;;;12.50;99.90;;;;;;4180504;28;20094;-73
2020/12/22 08:50:52;;;;;;;2.35;1.73;;;12.40;99.90;;;;;;4180646;28;20033;-71
2020/12/22 08:52:53;;;;;;;1.70;1.70;;;12.40;99.90;;;;;;4181160;28;20561;-73
2020/12/22 08:55:01;;;;;;;1.30;1.30;;;12.40;99.90;;;;;;4181296;28;20037;-73
2020/12/22 08:57:16;;;;;;;1.13;1.13;;;12.50;99.90;;;;;;4180760;28;20502;-73
2020/12/22 08:59:27;;;;;;;7.15;3.35;;;12.50;99.90;;;;;;4174616;28;20068;-73
2020/12/22 09:01:37;;;;;;;1.38;1.38;;;12.50;99.90;;;;;;4180436;28;20164;-72
2020/12/22 09:03:38;;;;;;;1.73;1.70;;;12.50;99.90;;;;;;4181301;28;20120;-72
2020/12/22 09:05:49;;;;;;;2.05;1.95;;;12.50;99.90;;;;;;4179267;28;20467;-71
2020/12/22 09:08:00;;;;;;;1.20;1.20;;;12.50;99.90;;;;;;4159369;28;20046;-72
2020/12/22 09:10:05;;;;;;;2.17;2.08;;;12.50;99.90;;;;;;4179904;28;20021;-72
2020/12/22 09:12:10;;;;;;;12.32;2.38;;;12.40;99.90;;;;;;4180704;28;20033;-72
2020/12/22 09:14:13;;;;;;;1.60;1.60;;;12.40;99.90;;;;;;4151833;28;20254;-72
2020/12/22 09:16:13;;;;;;;1.40;1.40;;;12.40;99.90;;;;;;4180378;28;20036;-73
2020/12/22 09:18:17;;;;;;;2.67;2.45;;;12.40;99.90;;;;;;4179805;28;20322;-73
2020/12/22 09:20:18;;;;;;;1.75;1.65;;;12.30;99.90;;;;;;4173999;28;20036;-72
2020/12/22 09:22:24;;;;;;;2.80;2.13;;;12.30;99.90;;;;;;4161122;28;20085;-72
2020/12/22 09:24:25;;;;;;;1.30;1.30;;;12.30;99.90;;;;;;4177673;28;20139;-72
2020/12/22 09:26:26;;;;;;;1.40;1.40;;;12.30;99.90;;;;;;4161383;28;20029;-73
2020/12/22 09:28:26;;;;;;;2.03;1.90;;;12.30;99.90;;;;;;4169893;28;20037;-71
2020/12/22 09:30:29;;;;;;;2.28;2.17;;;12.30;99.90;;;;;;4179563;28;20119;-73
2020/12/22 09:32:30;;;;;;;3.05;2.85;;;12.30;99.90;;;;;;4178997;28;20029;-72
2020/12/22 09:34:32;;;;;;;1.30;1.30;;;12.30;99.90;;;;;;4179239;28;20052;-72
2020/12/22 09:36:33;;;;;;;2.30;2.10;;;12.20;99.90;;;;;;4178432;28;20036;-72
2020/12/22 09:38:33;;;;;;;4.88;2.25;;;12.20;99.90;;;;;;4179036;28;20025;-72
2020/12/22 09:40:34;;;;;;;1.27;1.27;;;12.20;99.90;;;;;;4158152;28;20083;-72
2020/12/22 09:42:34;;;;;;;1.45;1.45;;;12.20;99.90;;;;;;4145549;28;20040;-73
2020/12/22 09:44:35;;;;;;;1.20;1.20;;;12.10;99.90;;;;;;4163016;28;20262;-72
2020/12/22 09:46:36;;;;;;;1.45;1.45;;;12.10;99.90;;;;;;4164440;28;20045;-72
2020/12/22 09:48:37;;;;;;;1.20;1.20;;;12.10;99.90;;;;;;4163463;28;20117;-72
2020/12/22 09:50:37;;;;;;;2.40;2.20;;;12.00;99.90;;;;;;4166421;28;20027;-72
2020/12/22 09:52:38;;;;;;;1.63;1.63;;;12.00;99.90;;;;;;4180513;28;20053;-72
2020/12/22 09:54:39;;;;;;;1.10;1.10;;;12.00;99.90;;;;;;4180306;28;20445;-72
2020/12/22 09:56:40;;;;;;;1.40;1.40;;;12.00;99.90;;;;;;4179313;28;20463;-72
2020/12/22 09:58:41;;;;;;;2.42;2.28;;;12.00;99.90;;;;;;4179745;28;20152;-72
2020/12/22 10:00:43;;;;;;;1.17;1.17;;;12.00;99.90;;;;;;4178017;28;20385;-72
2020/12/22 10:02:44;;;;;;;1.40;1.40;;;12.00;99.90;;;;;;4179999;28;20078;-72
2020/12/22 10:04:45;;;;;;;1.20;1.20;;;12.00;99.90;;;;;;4178986;28;20635;-72
2020/12/22 10:06:48;;;;;;;5.13;3.88;;;12.10;99.90;;;;;;4179826;28;20035;-72
2020/12/22 10:08:49;;;;;;;7.15;5.18;;;12.10;99.90;;;;;;4179670;28;20029;-73
2020/12/22 10:10:49;;;;;;;9.85;4.10;;;12.10;99.90;;;;;;4179138;28;20537;-73
2020/12/22 10:12:50;;;;;;;3.05;2.90;;;12.10;99.90;;;;;;4167750;28;20167;-72
2020/12/22 10:14:50;;;;;;;1.67;1.63;;;12.10;99.90;;;;;;4153616;28;20037;-73
2020/12/22 10:16:51;;;;;;;2.83;2.65;;;12.10;99.90;;;;;;4161734;28;20128;-73
2020/12/22 10:18:52;;;;;;;1.38;1.38;;;12.10;99.90;;;;;;4179747;28;20385;-72
2020/12/22 10:20:53;;;;;;;2.20;2.08;;;12.10;99.90;;;;;;4178480;28;20033;-72
2020/12/22 10:22:53;;;;;;;2.15;2.08;;;12.00;99.90;;;;;;4160407;28;20542;-72
2020/12/22 10:24:54;;;;;;;1.20;1.20;;;11.90;99.90;;;;;;4178135;28;20029;-71
2020/12/22 10:26:55;;;;;;;2.22;2.13;;;11.90;99.90;;;;;;4177515;28;20056;-72
2020/12/22 10:28:56;;;;;;;1.40;1.40;;;11.80;99.90;;;;;;4178270;28;20527;-72
2020/12/22 10:30:58;;;;;;;2.25;2.15;;;11.80;99.90;;;;;;4161276;28;20033;-72
2020/12/22 10:32:58;;;;;;;1.52;1.42;;;11.70;99.90;;;;;;4179660;28;20025;-72
2020/12/22 10:35:00;;;;;;;10.93;4.22;;;11.70;99.90;;;;;;4178122;28;20064;-71